Time;durP1;ratioP1;P1;durP2;ratioP2;P2;SDS_P1;SDS_P2;PMS_P1;PMS_P2;Temp;Humidity;BMP_temperature;BMP_pressure;BME280_temperature;BME280_humidity;BME280_pressure;Samples;Min_cycle;Max_cycle;Signal;HPM_P1;HPM_P2
2021/10/31 00:01:13;;;;;;;13.70;11.48;;;13.40;92.30;;;;;;5096209;28;20434;-61
2021/10/31 00:03:39;;;;;;;16.48;12.15;;;13.40;92.30;;;;;;5096259;28;20036;-61
2021/10/31 00:06:05;;;;;;;15.13;13.48;;;13.40;92.40;;;;;;5095783;28;20040;-61
2021/10/31 00:08:31;;;;;;;17.33;13.20;;;13.40;92.30;;;;;;5096015;28;20032;-61
2021/10/31 00:10:57;;;;;;;14.73;12.90;;;13.40;92.30;;;;;;5094238;28;20403;-61
2021/10/31 00:13:24;;;;;;;14.48;12.95;;;13.40;92.50;;;;;;5095492;28;20028;-60
2021/10/31 00:15:49;;;;;;;16.48;12.48;;;13.40;92.50;;;;;;5095713;28;20036;-61
2021/10/31 00:18:15;;;;;;;14.52;12.57;;;13.30;92.60;;;;;;5095269;28;20387;-60
2021/10/31 00:20:41;;;;;;;14.50;12.65;;;13.40;92.60;;;;;;5095015;28;20032;-62
2021/10/31 00:23:07;;;;;;;15.73;13.02;;;13.30;92.60;;;;;;5095628;28;20040;-61
2021/10/31 00:25:32;;;;;;;15.57;12.82;;;13.30;92.50;;;;;;5094892;28;20487;-61
2021/10/31 00:27:58;;;;;;;16.58;12.73;;;13.30;92.70;;;;;;5094138;28;20077;-61
2021/10/31 00:30:24;;;;;;;14.73;12.43;;;13.30;92.80;;;;;;5094765;28;20107;-61
2021/10/31 00:32:49;;;;;;;16.15;12.85;;;13.30;92.80;;;;;;5095644;28;20028;-61
2021/10/31 00:35:15;;;;;;;16.08;13.77;;;13.20;92.90;;;;;;5095912;28;20097;-62
2021/10/31 00:37:40;;;;;;;16.35;13.77;;;13.30;93.00;;;;;;5095275;28;20035;-62
2021/10/31 00:40:07;;;;;;;16.92;15.13;;;13.30;93.10;;;;;;5094493;28;20028;-62
2021/10/31 00:42:32;;;;;;;15.57;13.93;;;13.10;93.40;;;;;;5094900;28;20479;-62
2021/10/31 00:44:58;;;;;;;17.10;14.70;;;13.10;93.50;;;;;;5095047;28;20093;-60
2021/10/31 00:47:23;;;;;;;15.32;13.63;;;13.00;93.70;;;;;;5093480;28;20040;-61
2021/10/31 00:49:49;;;;;;;17.00;14.20;;;13.00;93.90;;;;;;5094968;28;20040;-61
2021/10/31 00:52:16;;;;;;;18.55;15.00;;;12.90;94.20;;;;;;5093701;28;20028;-61
2021/10/31 00:54:42;;;;;;;18.75;15.32;;;12.90;94.10;;;;;;5095262;28;20035;-63
2021/10/31 00:57:10;;;;;;;17.38;15.07;;;12.80;94.30;;;;;;5094564;28;20028;-62
2021/10/31 00:59:36;;;;;;;17.30;15.25;;;12.70;94.40;;;;;;5094647;28;20029;-62
2021/10/31 01:02:06;;;;;;;18.33;15.32;;;12.70;94.50;;;;;;5094968;28;20039;-61
2021/10/31 01:04:32;;;;;;;20.58;14.98;;;12.70;94.80;;;;;;5093296;28;20032;-63
2021/10/31 01:07:03;;;;;;;16.63;14.60;;;12.60;94.90;;;;;;5094401;28;20038;-62
2021/10/31 01:09:42;;;;;;;16.85;15.02;;;12.70;94.90;;;;;;5094494;28;20024;-62
2021/10/31 01:12:36;;;;;;;19.05;15.13;;;12.70;95.00;;;;;;5093563;28;20055;-62
2021/10/31 01:15:25;;;;;;;18.05;13.98;;;12.70;95.10;;;;;;5094660;28;20039;-63
2021/10/31 01:18:12;;;;;;;18.73;15.43;;;12.60;95.30;;;;;;5094993;28;20104;-62
2021/10/31 01:21:12;;;;;;;17.67;14.93;;;12.50;95.50;;;;;;5094591;28;20063;-61
2021/10/31 01:24:41;;;;;;;17.65;14.55;;;12.50;95.40;;;;;;5094514;28;20059;-61
2021/10/31 01:27:14;;;;;;;18.42;14.45;;;12.50;95.50;;;;;;5003118;28;20052;-60
2021/10/31 01:30:01;;;;;;;17.63;15.18;;;12.60;95.60;;;;;;5083877;28;20036;-61
2021/10/31 01:32:34;;;;;;;17.48;14.63;;;12.60;95.50;;;;;;5092986;28;20028;-60
2021/10/31 01:35:22;;;;;;;17.00;14.32;;;12.60;95.50;;;;;;5094436;28;20016;-61
2021/10/31 01:38:06;;;;;;;17.02;14.45;;;12.60;95.60;;;;;;5094040;28;20433;-62
2021/10/31 01:40:55;;;;;;;18.35;15.80;;;12.60;95.70;;;;;;5092348;28;20028;-61
2021/10/31 01:43:42;;;;;;;17.85;14.57;;;12.50;95.80;;;;;;5094057;28;20107;-62
2021/10/31 01:46:17;;;;;;;18.20;14.63;;;12.50;95.90;;;;;;5093701;28;20036;-61
2021/10/31 01:49:12;;;;;;;15.18;13.52;;;12.50;96.10;;;;;;5093861;28;20111;-62
2021/10/31 01:51:54;;;;;;;16.73;13.68;;;12.50;96.10;;;;;;5093664;28;20063;-62
2021/10/31 01:54:25;;;;;;;16.15;13.32;;;12.50;96.20;;;;;;5094107;28;20107;-62
2021/10/31 01:56:55;;;;;;;16.77;13.68;;;12.60;96.20;;;;;;5094779;28;20024;-62
2021/10/31 01:59:27;;;;;;;15.95;13.63;;;12.60;96.20;;;;;;5093980;28;20044;-61
2021/10/31 02:01:55;;;;;;;16.90;13.48;;;12.60;96.20;;;;;;5094003;28;20028;-62
2021/10/31 02:04:23;;;;;;;17.45;12.93;;;12.70;96.20;;;;;;5093781;28;20053;-61
2021/10/31 02:06:50;;;;;;;15.43;13.07;;;12.60;96.40;;;;;;5093486;28;20446;-62
2021/10/31 02:09:20;;;;;;;14.43;12.65;;;12.60;96.50;;;;;;5093525;28;20032;-61
2021/10/31 02:11:47;;;;;;;15.18;13.30;;;12.60;96.70;;;;;;5093716;28;20039;-62
2021/10/31 02:14:13;;;;;;;16.08;13.07;;;12.60;96.80;;;;;;5094167;28;20043;-61
2021/10/31 02:16:41;;;;;;;15.23;12.18;;;12.60;96.90;;;;;;5093185;28;20067;-62
2021/10/31 02:19:13;;;;;;;14.48;12.63;;;12.70;96.80;;;;;;5092860;28;20426;-62
2021/10/31 02:21:40;;;;;;;14.65;11.98;;;12.70;96.80;;;;;;5092909;28;20074;-61
2021/10/31 02:24:07;;;;;;;13.23;11.80;;;12.70;96.70;;;;;;5092927;28;20039;-62
2021/10/31 02:26:37;;;;;;;14.60;12.70;;;12.70;96.90;;;;;;5092938;28;20069;-62
2021/10/31 02:29:08;;;;;;;14.48;12.57;;;12.60;97.00;;;;;;5092891;28;20133;-58
2021/10/31 02:31:35;;;;;;;14.77;11.82;;;12.60;97.20;;;;;;5093090;28;20492;-61
2021/10/31 02:34:01;;;;;;;16.55;13.60;;;12.60;97.20;;;;;;5092434;28;20036;-61
2021/10/31 02:36:27;;;;;;;15.48;12.07;;;12.70;97.30;;;;;;5093660;28;20063;-61
2021/10/31 02:38:53;;;;;;;15.48;11.98;;;12.60;97.40;;;;;;5093796;28;20028;-60
2021/10/31 02:41:18;;;;;;;14.60;11.98;;;12.60;97.40;;;;;;5092684;28;20059;-61
2021/10/31 02:43:46;;;;;;;13.82;12.20;;;12.60;97.40;;;;;;5093947;28;20032;-61
2021/10/31 02:46:12;;;;;;;14.35;12.10;;;12.60;97.60;;;;;;5097433;28;20361;-61
2021/10/31 02:48:39;;;;;;;15.80;12.55;;;12.60;97.70;;;;;;5096041;28;20119;-62
2021/10/31 02:51:16;;;;;;;13.18;11.57;;;12.70;97.70;;;;;;5096544;28;20051;-62
2021/10/31 02:53:57;;;;;;;12.27;10.95;;;12.60;97.90;;;;;;5097130;28;20024;-62
2021/10/31 02:56:33;;;;;;;13.55;11.82;;;12.70;98.00;;;;;;5097132;28;20411;-61
2021/10/31 02:59:27;;;;;;;14.52;10.60;;;12.70;97.90;;;;;;5096975;28;20120;-61
2021/10/31 03:01:56;;;;;;;11.80;10.60;;;12.70;98.00;;;;;;5095822;28;20036;-62
2021/10/31 03:04:23;;;;;;;14.60;10.70;;;12.70;98.00;;;;;;5096204;28;20039;-61
2021/10/31 03:06:49;;;;;;;13.65;11.63;;;12.70;98.30;;;;;;5096972;28;20123;-62
2021/10/31 03:09:17;;;;;;;13.40;10.15;;;12.70;98.30;;;;;;5096126;28;20063;-62
2021/10/31 03:11:42;;;;;;;13.32;10.82;;;12.70;98.50;;;;;;5096820;28;20399;-62
2021/10/31 03:14:08;;;;;;;12.20;10.90;;;12.70;98.40;;;;;;5097049;28;20032;-59
2021/10/31 03:16:35;;;;;;;11.88;10.40;;;12.60;98.70;;;;;;5097034;28;20032;-65
2021/10/31 03:19:01;;;;;;;13.05;10.57;;;12.60;98.80;;;;;;5096647;28;20024;-63
2021/10/31 03:21:26;;;;;;;12.75;10.20;;;12.60;99.00;;;;;;5096231;28;20028;-63
2021/10/31 03:23:52;;;;;;;11.98;10.13;;;12.70;98.90;;;;;;5095660;28;20044;-61
2021/10/31 03:26:18;;;;;;;12.10;10.63;;;12.70;99.00;;;;;;5096234;28;20029;-63
2021/10/31 03:28:46;;;;;;;12.52;10.10;;;12.70;99.10;;;;;;5096806;28;20039;-62
2021/10/31 03:31:12;;;;;;;12.15;10.20;;;12.70;99.10;;;;;;5094750;28;20028;-59
2021/10/31 03:33:37;;;;;;;11.77;9.85;;;12.70;99.20;;;;;;5096556;28;20028;-63
2021/10/31 03:36:03;;;;;;;13.68;10.55;;;12.70;99.30;;;;;;5096622;28;20070;-62
2021/10/31 03:38:29;;;;;;;11.40;9.98;;;12.70;99.40;;;;;;5096851;28;20050;-61
2021/10/31 03:40:54;;;;;;;12.13;10.85;;;12.70;99.30;;;;;;5095778;28;20046;-60
2021/10/31 03:43:20;;;;;;;12.05;10.50;;;12.60;99.60;;;;;;5095717;28;20484;-61
2021/10/31 03:45:48;;;;;;;11.90;10.60;;;12.70;99.60;;;;;;5096041;28;20115;-62
2021/10/31 03:48:14;;;;;;;12.00;10.77;;;12.70;99.60;;;;;;5096025;28;20052;-62
2021/10/31 03:50:39;;;;;;;13.23;10.60;;;12.80;99.50;;;;;;5094444;28;20064;-62
2021/10/31 03:53:05;;;;;;;15.20;10.30;;;12.70;99.50;;;;;;5095877;28;20368;-62
2021/10/31 03:55:30;;;;;;;13.27;9.98;;;12.70;99.50;;;;;;5095916;28;20044;-63
2021/10/31 03:57:56;;;;;;;15.13;10.55;;;12.70;99.50;;;;;;5096631;28;20121;-62
2021/10/31 04:00:22;;;;;;;12.25;10.38;;;12.70;99.50;;;;;;5095893;28;20567;-62
2021/10/31 04:02:48;;;;;;;12.50;10.80;;;12.80;99.50;;;;;;5095465;28;20032;-61
2021/10/31 04:05:14;;;;;;;12.35;10.07;;;12.80;99.40;;;;;;5095167;28;20104;-61
2021/10/31 04:07:40;;;;;;;11.50;9.90;;;12.90;99.50;;;;;;5095711;28;20067;-60
2021/10/31 04:10:06;;;;;;;14.93;9.63;;;12.90;99.50;;;;;;5095145;28;20082;-62
2021/10/31 04:12:33;;;;;;;11.35;9.85;;;12.90;99.40;;;;;;5095974;28;20093;-61
2021/10/31 04:14:58;;;;;;;12.30;10.15;;;13.00;99.40;;;;;;5096162;28;20020;-61
2021/10/31 04:17:24;;;;;;;10.40;9.30;;;13.00;99.40;;;;;;5095794;28;20117;-62
2021/10/31 04:19:49;;;;;;;12.85;10.40;;;13.10;99.30;;;;;;5094007;28;20031;-61
2021/10/31 04:22:15;;;;;;;11.95;10.40;;;13.10;99.50;;;;;;5095008;28;20484;-63
2021/10/31 04:24:41;;;;;;;14.52;10.48;;;13.10;99.50;;;;;;5095537;28;20059;-63
2021/10/31 04:27:07;;;;;;;10.68;9.43;;;13.10;99.50;;;;;;5095501;28;20114;-61
2021/10/31 04:29:33;;;;;;;11.13;9.93;;;13.10;99.60;;;;;;5095119;28;20039;-62
2021/10/31 04:31:58;;;;;;;10.23;9.02;;;13.10;99.60;;;;;;5095508;28;20044;-61
2021/10/31 04:34:24;;;;;;;10.70;9.60;;;13.10;99.60;;;;;;5096311;28;20073;-61
2021/10/31 04:36:51;;;;;;;11.98;8.88;;;13.20;99.50;;;;;;5095120;28;20107;-61
2021/10/31 04:39:17;;;;;;;11.05;9.05;;;13.20;99.50;;;;;;5095571;28;20446;-61
2021/10/31 04:41:45;;;;;;;11.55;9.93;;;13.10;99.50;;;;;;5092590;28;20028;-62
2021/10/31 04:44:11;;;;;;;16.08;13.70;;;13.10;99.70;;;;;;5079869;28;20391;-62
2021/10/31 04:46:37;;;;;;;32.97;24.48;;;13.10;99.80;;;;;;5075222;28;20032;-61
2021/10/31 04:49:02;;;;;;;11.68;10.30;;;13.00;99.80;;;;;;5074666;28;20064;-61
2021/10/31 04:51:28;;;;;;;11.60;10.05;;;13.10;99.80;;;;;;5074952;28;20025;-61
2021/10/31 04:53:54;;;;;;;10.70;8.93;;;13.10;99.80;;;;;;5073933;28;20025;-61
2021/10/31 04:56:22;;;;;;;11.90;9.52;;;13.10;99.70;;;;;;5075330;28;20037;-60
2021/10/31 04:58:49;;;;;;;11.75;9.23;;;13.10;99.80;;;;;;5074685;28;20059;-59
2021/10/31 05:01:16;;;;;;;11.15;9.63;;;13.10;99.60;;;;;;5076886;28;20073;-62
2021/10/31 05:03:41;;;;;;;13.07;10.20;;;13.00;99.70;;;;;;5090012;28;20028;-63
2021/10/31 05:06:07;;;;;;;10.98;9.70;;;13.00;99.90;;;;;;5088727;28;20115;-63
2021/10/31 05:08:32;;;;;;;12.38;9.77;;;13.00;99.90;;;;;;5086900;28;20032;-61
2021/10/31 05:10:58;;;;;;;13.82;9.88;;;12.90;99.90;;;;;;5093242;28;20066;-61
2021/10/31 05:13:23;;;;;;;14.38;10.70;;;12.90;99.90;;;;;;5089085;28;20032;-62
2021/10/31 05:15:49;;;;;;;12.23;10.18;;;12.80;99.90;;;;;;5085745;28;20108;-62
2021/10/31 05:18:15;;;;;;;13.18;9.65;;;12.80;99.90;;;;;;5088935;28;20028;-62
2021/10/31 05:20:40;;;;;;;12.27;10.38;;;12.80;99.90;;;;;;5093517;28;20149;-60
2021/10/31 05:23:06;;;;;;;13.00;10.63;;;12.80;99.90;;;;;;5094030;28;20514;-63
2021/10/31 05:25:32;;;;;;;11.57;9.35;;;12.80;99.90;;;;;;5093349;28;20114;-63
2021/10/31 05:27:57;;;;;;;12.52;9.13;;;12.80;99.90;;;;;;5094289;28;20436;-63
2021/10/31 05:30:23;;;;;;;11.35;9.50;;;12.80;99.90;;;;;;5094247;28;20540;-59
2021/10/31 05:32:51;;;;;;;11.63;9.63;;;12.70;99.90;;;;;;5094648;28;20035;-62
2021/10/31 05:35:16;;;;;;;12.98;10.57;;;12.60;99.90;;;;;;5094872;28;20039;-61
2021/10/31 05:37:47;;;;;;;11.52;9.73;;;12.60;99.90;;;;;;5094558;28;20024;-62
2021/10/31 05:40:15;;;;;;;11.90;10.07;;;12.50;99.90;;;;;;5074276;28;20056;-62
2021/10/31 05:42:41;;;;;;;12.65;10.18;;;12.50;99.90;;;;;;5072796;28;20032;-61
2021/10/31 05:45:08;;;;;;;11.88;10.13;;;12.50;99.90;;;;;;5074746;28;20685;-60
2021/10/31 05:47:39;;;;;;;12.05;10.70;;;12.40;99.90;;;;;;5073603;28;20244;-62
2021/10/31 05:50:07;;;;;;;14.07;10.30;;;12.50;99.90;;;;;;5073330;28;20046;-62
2021/10/31 05:52:33;;;;;;;11.45;10.25;;;12.50;99.90;;;;;;5073607;28;20484;-63
2021/10/31 05:55:00;;;;;;;11.13;9.85;;;12.40;99.90;;;;;;5078781;28;20106;-62
2021/10/31 05:57:27;;;;;;;11.80;10.38;;;12.40;99.90;;;;;;5092162;28;20073;-62
2021/10/31 05:59:53;;;;;;;13.10;10.27;;;12.50;99.90;;;;;;5093227;28;20099;-63
2021/10/31 06:02:18;;;;;;;13.45;11.40;;;12.60;99.90;;;;;;5093342;28;20062;-61
2021/10/31 06:04:45;;;;;;;16.33;12.98;;;12.60;99.90;;;;;;5092390;28;20043;-61
2021/10/31 06:07:11;;;;;;;12.55;11.15;;;12.60;99.90;;;;;;5093512;28;20027;-61
2021/10/31 06:09:37;;;;;;;12.30;10.52;;;12.60;99.90;;;;;;5093142;28;20115;-62
2021/10/31 06:12:06;;;;;;;14.38;11.00;;;12.60;99.90;;;;;;5092810;28;20181;-62
2021/10/31 06:14:34;;;;;;;11.55;10.18;;;12.70;99.90;;;;;;5092111;28;20036;-61
2021/10/31 06:17:00;;;;;;;13.68;10.98;;;12.60;99.90;;;;;;5093500;28;20472;-62
2021/10/31 06:19:26;;;;;;;12.27;10.57;;;12.60;99.90;;;;;;5092491;28;20085;-61
2021/10/31 06:21:52;;;;;;;13.52;11.75;;;12.60;99.90;;;;;;5092837;28;20032;-62
2021/10/31 06:24:17;;;;;;;14.60;11.80;;;12.60;99.90;;;;;;5092003;28;20032;-63
2021/10/31 06:26:43;;;;;;;16.50;14.05;;;12.50;99.90;;;;;;5093335;28;20442;-62
2021/10/31 06:29:08;;;;;;;14.00;12.48;;;12.50;99.90;;;;;;5076845;28;20060;-62
2021/10/31 06:31:34;;;;;;;15.90;13.23;;;12.60;99.90;;;;;;5072248;28;20079;-63
2021/10/31 06:34:00;;;;;;;15.55;12.50;;;12.60;99.90;;;;;;5073795;28;20047;-63
2021/10/31 06:36:25;;;;;;;15.77;13.43;;;12.70;99.90;;;;;;5073257;28;20033;-63
2021/10/31 06:38:51;;;;;;;14.88;12.05;;;12.70;99.90;;;;;;5072861;28;20361;-59
2021/10/31 06:41:19;;;;;;;14.48;12.88;;;12.70;99.90;;;;;;5073764;28;20078;-63
2021/10/31 06:43:45;;;;;;;18.15;12.52;;;12.70;99.90;;;;;;5073623;28;20067;-60
2021/10/31 06:46:10;;;;;;;14.02;12.52;;;12.60;99.90;;;;;;5073150;28;20036;-61
2021/10/31 06:48:36;;;;;;;14.60;12.57;;;12.60;99.90;;;;;;5072503;28;20395;-63
2021/10/31 06:51:01;;;;;;;15.93;13.55;;;12.60;99.90;;;;;;5070936;28;20021;-62
2021/10/31 06:53:27;;;;;;;14.52;12.50;;;12.50;99.90;;;;;;5072823;28;20068;-66
2021/10/31 06:55:52;;;;;;;14.90;12.73;;;12.60;99.90;;;;;;5072089;28;20492;-63
2021/10/31 06:58:18;;;;;;;14.70;11.95;;;12.70;99.90;;;;;;5072620;28;20368;-61
2021/10/31 07:00:44;;;;;;;14.45;11.73;;;12.70;99.90;;;;;;5072836;28;20514;-63
2021/10/31 07:03:09;;;;;;;14.18;12.73;;;12.80;99.90;;;;;;5072190;28;20048;-62
2021/10/31 07:05:35;;;;;;;15.95;12.68;;;12.80;99.90;;;;;;5073221;28;20068;-64
2021/10/31 07:08:00;;;;;;;16.45;13.43;;;12.90;99.90;;;;;;5073599;28;20098;-62
2021/10/31 07:10:26;;;;;;;13.63;10.70;;;13.00;99.90;;;;;;5073098;28;20102;-62
2021/10/31 07:12:52;;;;;;;14.65;12.90;;;13.00;99.90;;;;;;5074184;28;20037;-60
2021/10/31 07:15:17;;;;;;;14.43;11.43;;;13.10;99.90;;;;;;5073109;28;20051;-61
2021/10/31 07:17:44;;;;;;;13.40;11.50;;;13.20;99.90;;;;;;5082769;28;20059;-62
2021/10/31 07:20:13;;;;;;;17.80;12.10;;;13.20;99.90;;;;;;5091471;28;20055;-62
2021/10/31 07:22:39;;;;;;;12.02;10.63;;;13.30;99.90;;;;;;5092407;28;20036;-62
2021/10/31 07:25:06;;;;;;;13.52;10.98;;;13.40;99.90;;;;;;5092699;28;20024;-60
2021/10/31 07:27:31;;;;;;;13.60;11.18;;;13.40;99.90;;;;;;5089530;28;20119;-63
2021/10/31 07:29:57;;;;;;;19.10;14.70;;;13.50;99.90;;;;;;5071881;28;20492;-63
2021/10/31 07:32:23;;;;;;;15.90;13.95;;;13.50;99.90;;;;;;5075808;28;20036;-62
2021/10/31 07:34:48;;;;;;;13.32;11.95;;;13.50;99.90;;;;;;5076302;28;20032;-61
2021/10/31 07:37:15;;;;;;;12.38;10.85;;;13.60;99.90;;;;;;5077103;28;20163;-60
2021/10/31 07:39:42;;;;;;;15.10;11.73;;;13.70;99.90;;;;;;5076162;28;20028;-63
2021/10/31 07:42:07;;;;;;;13.05;11.73;;;13.70;99.90;;;;;;5076538;28;20511;-62
2021/10/31 07:44:33;;;;;;;17.27;15.38;;;13.80;99.90;;;;;;5075903;28;20040;-63
2021/10/31 07:46:59;;;;;;;14.65;12.00;;;13.80;99.90;;;;;;5075510;28;20067;-64
2021/10/31 07:49:24;;;;;;;13.85;12.30;;;13.90;99.90;;;;;;5076282;28;20094;-61
2021/10/31 07:51:51;;;;;;;13.40;10.75;;;14.00;99.90;;;;;;5075400;28;20044;-63
2021/10/31 07:54:21;;;;;;;12.95;11.00;;;14.00;99.90;;;;;;5077626;28;20044;-61
2021/10/31 07:56:48;;;;;;;14.75;11.88;;;14.00;99.90;;;;;;5076345;28;20036;-62
2021/10/31 07:59:13;;;;;;;15.27;12.70;;;13.90;99.90;;;;;;5076374;28;20029;-62
2021/10/31 08:01:39;;;;;;;14.73;12.40;;;13.90;99.90;;;;;;5075505;28;20043;-63
2021/10/31 08:04:04;;;;;;;14.60;12.25;;;13.90;99.90;;;;;;5074778;28;20509;-62
2021/10/31 08:06:30;;;;;;;13.07;11.63;;;13.90;99.90;;;;;;5076346;28;20099;-63
2021/10/31 08:08:55;;;;;;;11.98;10.68;;;14.00;99.90;;;;;;5074566;28;20403;-62
2021/10/31 08:11:21;;;;;;;15.07;11.82;;;14.10;99.90;;;;;;5075233;28;20036;-62
2021/10/31 08:13:47;;;;;;;14.40;11.50;;;14.20;99.80;;;;;;5074929;28;20472;-62
2021/10/31 08:16:13;;;;;;;14.55;12.95;;;14.30;99.60;;;;;;5076197;28;20090;-64
2021/10/31 08:18:38;;;;;;;14.85;12.95;;;14.30;99.50;;;;;;5092644;28;20047;-62
2021/10/31 08:21:05;;;;;;;13.88;11.90;;;14.30;99.30;;;;;;5089055;28;20024;-61
2021/10/31 08:23:30;;;;;;;12.77;10.60;;;14.40;99.20;;;;;;5094901;28;20032;-61
2021/10/31 08:25:58;;;;;;;12.65;11.25;;;14.40;99.20;;;;;;5095779;28;20031;-61
2021/10/31 08:28:24;;;;;;;13.27;10.85;;;14.50;99.10;;;;;;5096171;28;20047;-61
2021/10/31 08:30:59;;;;;;;12.25;10.55;;;14.60;99.00;;;;;;5095123;28;20031;-61
2021/10/31 08:33:30;;;;;;;18.63;14.65;;;14.80;98.70;;;;;;5094755;28;20519;-62
2021/10/31 08:35:56;;;;;;;20.50;15.13;;;14.70;98.80;;;;;;5096089;28;20056;-61
2021/10/31 08:38:22;;;;;;;18.63;13.50;;;14.80;98.80;;;;;;5095248;28;20129;-63
2021/10/31 08:40:49;;;;;;;17.52;13.48;;;14.90;98.70;;;;;;5094605;28;20035;-62
2021/10/31 08:43:16;;;;;;;14.77;11.55;;;15.00;98.60;;;;;;5095047;28;20042;-63
2021/10/31 08:45:42;;;;;;;20.98;11.85;;;15.10;98.30;;;;;;5094918;28;20044;-62
2021/10/31 08:48:12;;;;;;;17.48;12.52;;;15.10;98.20;;;;;;5094569;28;20139;-61
2021/10/31 08:50:37;;;;;;;18.73;12.02;;;15.20;98.10;;;;;;5094740;28;20063;-62
2021/10/31 08:53:05;;;;;;;12.20;10.90;;;15.30;98.00;;;;;;5093452;28;20059;-62
2021/10/31 08:55:31;;;;;;;14.63;11.95;;;15.40;97.90;;;;;;5095201;28;20433;-63
2021/10/31 08:57:57;;;;;;;12.95;11.07;;;15.40;97.80;;;;;;5074290;28;20047;-62
2021/10/31 09:00:23;;;;;;;11.88;10.00;;;15.40;97.70;;;;;;5073389;28;20024;-62
2021/10/31 09:02:48;;;;;;;10.25;9.15;;;15.50;97.50;;;;;;5075169;28;20036;-64
2021/10/31 09:05:14;;;;;;;10.93;9.52;;;15.70;97.40;;;;;;5076028;28;20435;-62
2021/10/31 09:07:40;;;;;;;11.35;9.05;;;15.80;97.30;;;;;;5075080;28;20103;-62
2021/10/31 09:10:06;;;;;;;12.77;9.25;;;15.80;97.10;;;;;;5073963;28;20047;-62
2021/10/31 09:12:32;;;;;;;10.40;8.93;;;16.00;96.90;;;;;;5072812;28;20044;-63
2021/10/31 09:14:58;;;;;;;15.98;11.45;;;16.20;96.70;;;;;;5073370;28;20399;-63
2021/10/31 09:17:23;;;;;;;12.18;10.73;;;16.40;96.30;;;;;;5080690;28;20031;-62
2021/10/31 09:19:49;;;;;;;11.73;9.77;;;16.40;96.10;;;;;;5094314;28;20082;-61
2021/10/31 09:22:15;;;;;;;13.95;11.18;;;16.40;96.20;;;;;;5094378;28;20061;-62
2021/10/31 09:24:40;;;;;;;12.48;9.55;;;16.50;96.20;;;;;;5094326;28;20035;-62
2021/10/31 09:27:06;;;;;;;10.23;9.10;;;16.50;95.90;;;;;;5094331;28;20036;-62
2021/10/31 09:29:32;;;;;;;12.85;10.90;;;16.60;95.90;;;;;;5093431;28;20036;-62
2021/10/31 09:31:59;;;;;;;20.25;14.75;;;16.70;95.70;;;;;;5092809;28;20043;-63
2021/10/31 09:34:27;;;;;;;9.57;8.68;;;16.80;95.40;;;;;;5093886;28;20126;-62
2021/10/31 09:36:54;;;;;;;9.07;8.07;;;16.80;95.10;;;;;;5094047;28;20032;-63
2021/10/31 09:39:19;;;;;;;9.93;8.27;;;16.90;95.10;;;;;;5094073;28;20046;-61
2021/10/31 09:41:45;;;;;;;9.38;7.15;;;17.00;94.90;;;;;;5094387;28;20428;-60
2021/10/31 09:46:37;;;;;;;10.27;7.90;;;16.90;94.70;;;;;;5094205;28;20475;-62
2021/10/31 09:49:04;;;;;;;9.43;6.45;;;17.00;94.30;;;;;;5092091;28;20032;-62
2021/10/31 09:51:31;;;;;;;13.38;7.93;;;17.10;94.10;;;;;;5081520;28;20033;-63
2021/10/31 09:53:59;;;;;;;7.80;6.35;;;17.10;94.30;;;;;;5073019;28;20033;-63
2021/10/31 09:56:24;;;;;;;7.82;6.60;;;17.30;94.10;;;;;;5072811;28;20024;-62
2021/10/31 09:58:52;;;;;;;8.98;6.75;;;17.50;93.70;;;;;;5071836;28;20033;-61
2021/10/31 10:02:26;;;;;;;11.40;8.68;;;17.40;93.50;;;;;;5074534;28;20024;-61
2021/10/31 10:04:47;;;;;;;7.88;6.47;;;17.40;93.60;;;;;;5072127;28;20041;-61
2021/10/31 10:07:15;;;;;;;7.38;6.57;;;17.50;93.50;;;;;;5094408;28;20035;-63
2021/10/31 10:09:54;;;;;;;9.10;7.60;;;17.60;93.30;;;;;;5093451;28;20123;-64
2021/10/31 10:12:20;;;;;;;11.60;8.18;;;17.50;93.30;;;;;;5093310;28;20111;-63
2021/10/31 10:15:11;;;;;;;9.15;7.65;;;17.40;93.30;;;;;;5085929;28;20082;-63
2021/10/31 10:17:50;;;;;;;12.15;7.00;;;17.30;93.30;;;;;;5076276;28;20037;-62
2021/10/31 10:20:16;;;;;;;9.88;8.88;;;17.40;93.40;;;;;;5080858;28;20085;-63
2021/10/31 10:22:43;;;;;;;14.63;9.57;;;17.60;93.30;;;;;;5089424;28;20132;-61
2021/10/31 10:25:09;;;;;;;11.45;10.23;;;17.70;92.90;;;;;;5090804;28;20028;-61
2021/10/31 10:27:47;;;;;;;11.73;9.13;;;17.90;92.70;;;;;;5086003;28;20070;-63
2021/10/31 10:30:15;;;;;;;10.80;9.70;;;18.00;92.40;;;;;;5092544;28;20028;-63
2021/10/31 10:32:52;;;;;;;11.98;10.68;;;18.00;92.40;;;;;;5093509;28;20093;-62
2021/10/31 10:35:20;;;;;;;11.23;10.02;;;18.00;92.30;;;;;;5093579;28;20024;-63
2021/10/31 10:37:46;;;;;;;10.32;9.27;;;18.00;92.10;;;;;;5093817;28;20032;-62
2021/10/31 10:40:20;;;;;;;12.27;10.65;;;18.10;92.00;;;;;;5093099;28;20032;-62
2021/10/31 10:42:49;;;;;;;10.25;9.15;;;18.20;92.00;;;;;;5091748;28;20127;-63
2021/10/31 10:45:20;;;;;;;10.63;9.15;;;18.20;91.80;;;;;;5093357;28;20123;-61
2021/10/31 10:47:53;;;;;;;10.93;9.63;;;18.30;91.60;;;;;;5092999;28;20480;-62
2021/10/31 10:50:33;;;;;;;11.50;10.10;;;18.30;91.40;;;;;;5093367;28;20051;-61
2021/10/31 10:52:59;;;;;;;10.30;9.27;;;18.40;91.40;;;;;;5093596;28;20434;-61
2021/10/31 10:55:27;;;;;;;10.85;9.77;;;18.40;91.50;;;;;;5092589;28;20043;-61
2021/10/31 10:57:57;;;;;;;10.65;9.55;;;18.30;91.60;;;;;;5092914;28;20395;-63
2021/10/31 11:00:43;;;;;;;12.93;10.55;;;18.40;91.70;;;;;;5083344;28;20027;-61
2021/10/31 11:03:15;;;;;;;9.20;7.28;;;18.60;91.30;;;;;;5083547;28;20034;-62
2021/10/31 11:05:44;;;;;;;8.82;7.78;;;18.50;91.40;;;;;;5084879;28;20115;-61
2021/10/31 11:08:15;;;;;;;11.35;8.38;;;18.50;91.40;;;;;;5085410;28;20056;-62
2021/10/31 11:10:46;;;;;;;7.35;6.65;;;18.40;91.50;;;;;;5090616;28;20050;-62
2021/10/31 11:13:13;;;;;;;8.30;7.47;;;18.40;91.60;;;;;;5086124;28;20032;-62
2021/10/31 11:15:41;;;;;;;9.32;7.53;;;18.50;91.40;;;;;;5083937;28;20233;-62
2021/10/31 11:18:09;;;;;;;10.73;7.72;;;18.40;91.50;;;;;;5086737;28;20028;-62
2021/10/31 11:20:41;;;;;;;9.98;8.98;;;18.50;91.40;;;;;;5090292;28;20032;-62
2021/10/31 11:23:08;;;;;;;8.65;7.80;;;18.40;91.50;;;;;;5076064;28;20397;-63
2021/10/31 11:25:36;;;;;;;8.80;7.90;;;18.30;91.60;;;;;;5083499;28;20036;-63
2021/10/31 11:28:05;;;;;;;8.48;7.45;;;18.40;91.50;;;;;;5085444;28;20033;-62
2021/10/31 11:30:32;;;;;;;9.73;8.20;;;18.40;91.60;;;;;;5083358;28;20032;-63
2021/10/31 11:32:59;;;;;;;9.52;8.38;;;18.60;91.50;;;;;;5088897;28;20058;-61
2021/10/31 11:35:26;;;;;;;10.93;7.70;;;18.70;91.40;;;;;;5096349;28;20043;-62
2021/10/31 11:38:03;;;;;;;7.65;6.80;;;18.80;91.20;;;;;;5096799;28;20043;-59
2021/10/31 11:40:46;;;;;;;9.18;7.38;;;18.80;91.10;;;;;;5095761;28;20070;-62
2021/10/31 11:43:27;;;;;;;8.50;7.60;;;18.90;91.00;;;;;;5095218;28;20085;-63
2021/10/31 11:45:54;;;;;;;10.15;9.13;;;18.90;91.10;;;;;;5096386;28;20039;-62
2021/10/31 11:48:22;;;;;;;10.85;9.23;;;18.90;90.90;;;;;;5095162;28;20058;-61
2021/10/31 11:51:03;;;;;;;10.05;9.05;;;19.10;90.60;;;;;;5096092;28;20059;-63
2021/10/31 11:53:52;;;;;;;9.85;8.75;;;19.00;90.30;;;;;;5096035;28;20046;-62
2021/10/31 11:56:25;;;;;;;10.63;8.52;;;19.00;90.30;;;;;;5086052;28;20036;-62
2021/10/31 11:59:07;;;;;;;11.05;8.52;;;19.00;90.40;;;;;;5096321;28;20040;-61
2021/10/31 12:01:44;;;;;;;10.25;9.07;;;18.90;90.30;;;;;;5084359;28;20399;-60
2021/10/31 12:04:13;;;;;;;10.50;9.35;;;18.80;90.50;;;;;;5083642;28;20025;-61
2021/10/31 12:06:41;;;;;;;12.30;10.25;;;18.80;90.50;;;;;;5084121;28;20028;-60
2021/10/31 12:09:27;;;;;;;11.88;10.65;;;18.80;90.20;;;;;;5083119;28;20016;-60
2021/10/31 12:11:56;;;;;;;11.85;10.65;;;18.80;90.30;;;;;;5084513;28;20039;-60
2021/10/31 12:14:43;;;;;;;12.30;10.65;;;18.70;90.30;;;;;;5081764;28;20016;-60
2021/10/31 12:17:08;;;;;;;12.75;11.00;;;18.60;90.20;;;;;;5083719;28;20124;-61
2021/10/31 12:19:36;;;;;;;13.15;11.70;;;18.60;90.10;;;;;;5084692;28;20467;-61
2021/10/31 12:22:32;;;;;;;13.07;11.68;;;18.60;90.10;;;;;;5084624;28;20085;-61
2021/10/31 12:25:10;;;;;;;12.88;11.48;;;18.70;90.00;;;;;;5085173;28;20033;-61
2021/10/31 12:27:45;;;;;;;13.02;11.65;;;18.80;89.40;;;;;;5086013;28;20028;-60
2021/10/31 12:30:34;;;;;;;11.32;10.05;;;18.90;88.80;;;;;;5085873;28;20028;-59
2021/10/31 12:33:05;;;;;;;13.70;12.18;;;19.20;88.40;;;;;;5089391;28;20044;-61
2021/10/31 12:35:41;;;;;;;12.38;11.05;;;19.40;88.10;;;;;;5085696;28;20024;-61
2021/10/31 12:38:15;;;;;;;16.23;11.57;;;19.50;87.20;;;;;;5083760;28;20035;-61
2021/10/31 12:41:18;;;;;;;13.02;11.30;;;19.70;87.00;;;;;;5082178;28;20708;-62
2021/10/31 12:43:46;;;;;;;12.27;10.75;;;19.90;86.10;;;;;;5071742;28;20029;-61